createdAt,value
2022-11-02T00:01:09.666Z,100.00
2022-11-02T00:03:37.570Z,100.00
2022-11-02T00:06:05.564Z,100.00
2022-11-02T00:08:33.387Z,100.00
2022-11-02T00:11:01.231Z,100.00
2022-11-02T00:13:29.094Z,100.00
2022-11-02T00:15:58.518Z,100.00
2022-11-02T00:18:26.378Z,100.00
2022-11-02T00:20:54.217Z,100.00
2022-11-02T00:23:22.066Z,100.00
2022-11-02T00:25:52.958Z,100.00
2022-11-02T00:28:21.090Z,100.00
2022-11-02T00:30:49.052Z,100.00
2022-11-02T00:33:18.411Z,100.00
2022-11-02T00:35:46.814Z,100.00
2022-11-02T00:38:14.918Z,100.00
2022-11-02T00:40:42.806Z,100.00
2022-11-02T00:43:10.625Z,100.00
2022-11-02T00:45:38.745Z,100.00
2022-11-02T00:48:07.655Z,100.00
2022-11-02T00:50:37.047Z,100.00
2022-11-02T00:53:04.886Z,100.00
2022-11-02T00:55:32.710Z,100.00
2022-11-02T00:58:00.716Z,100.00
2022-11-02T01:00:28.711Z,100.00
2022-11-02T01:02:56.537Z,100.00
2022-11-02T01:05:24.390Z,100.00
2022-11-02T01:07:53.875Z,100.00
2022-11-02T01:10:21.993Z,100.00
2022-11-02T01:12:49.930Z,100.00
2022-11-02T01:15:17.935Z,100.00
2022-11-02T01:17:45.765Z,100.00
2022-11-02T01:20:14.274Z,100.00
2022-11-02T01:22:42.113Z,100.00
2022-11-02T01:25:11.489Z,100.00
2022-11-02T01:27:39.361Z,100.00
2022-11-02T01:30:08.255Z,100.00
2022-11-02T01:32:36.130Z,100.00
2022-11-02T01:35:05.604Z,100.00
2022-11-02T01:37:33.451Z,100.00
2022-11-02T01:40:01.478Z,100.00
2022-11-02T01:42:30.675Z,100.00
2022-11-02T01:44:58.503Z,100.00
2022-11-02T01:47:31.325Z,100.00
2022-11-02T01:50:04.371Z,100.00
2022-11-02T01:52:35.680Z,100.00
2022-11-02T01:55:08.137Z,100.00
2022-11-02T01:57:39.156Z,100.00
2022-11-02T02:00:09.955Z,100.00
2022-11-02T02:02:43.862Z,100.00
2022-11-02T02:05:14.723Z,100.00
2022-11-02T02:07:43.049Z,100.00
2022-11-02T02:10:11.265Z,100.00
2022-11-02T02:12:43.734Z,100.00
2022-11-02T02:15:13.122Z,100.00
2022-11-02T02:17:48.149Z,100.00
2022-11-02T02:20:27.355Z,100.00
2022-11-02T02:23:19.518Z,100.00
2022-11-02T02:26:05.469Z,100.00
2022-11-02T02:28:42.568Z,100.00
2022-11-02T02:31:15.819Z,100.00
2022-11-02T02:33:50.601Z,100.00
2022-11-02T02:36:22.754Z,100.00
2022-11-02T02:38:59.866Z,100.00
2022-11-02T02:41:39.266Z,100.00
2022-11-02T02:44:12.063Z,100.00
2022-11-02T02:46:46.629Z,100.00
2022-11-02T02:49:19.233Z,100.00
2022-11-02T02:51:48.409Z,100.00
2022-11-02T02:54:20.567Z,100.00
2022-11-02T02:56:53.806Z,100.00
2022-11-02T02:59:27.100Z,100.00
2022-11-02T03:01:57.140Z,100.00
2022-11-02T03:04:25.771Z,100.00
2022-11-02T03:06:58.140Z,100.00
2022-11-02T03:09:33.542Z,100.00
2022-11-02T03:12:14.166Z,100.00
2022-11-02T03:14:55.035Z,100.00
2022-11-02T03:17:31.710Z,100.00
2022-11-02T03:20:09.010Z,100.00
2022-11-02T03:22:48.362Z,100.00
2022-11-02T03:25:20.119Z,100.00
2022-11-02T03:27:54.325Z,100.00
2022-11-02T03:30:25.581Z,100.00
2022-11-02T03:33:02.288Z,100.00
2022-11-02T03:35:35.703Z,100.00
2022-11-02T03:38:07.583Z,100.00
2022-11-02T03:40:40.418Z,100.00
2022-11-02T03:43:08.673Z,100.00
2022-11-02T03:45:42.091Z,100.00
2022-11-02T03:48:13.834Z,100.00
2022-11-02T03:50:47.427Z,100.00
2022-11-02T03:53:22.260Z,100.00
2022-11-02T03:55:54.053Z,100.00
2022-11-02T03:58:21.913Z,100.00
2022-11-02T04:00:54.465Z,100.00
2022-11-02T04:03:25.084Z,100.00
2022-11-02T04:05:53.026Z,100.00
2022-11-02T04:08:29.330Z,100.00
2022-11-02T04:11:14.801Z,100.00
2022-11-02T04:14:00.188Z,100.00
2022-11-02T04:16:29.404Z,100.00
2022-11-02T04:19:14.873Z,100.00
2022-11-02T04:22:03.093Z,100.00
2022-11-02T04:24:48.491Z,100.00
2022-11-02T04:27:20.513Z,100.00
2022-11-02T04:29:48.669Z,100.00
2022-11-02T04:32:38.833Z,100.00
2022-11-02T04:35:07.046Z,100.00
2022-11-02T04:37:57.177Z,100.00
2022-11-02T04:40:25.157Z,100.00
2022-11-02T04:42:52.990Z,100.00
2022-11-02T04:45:20.838Z,100.00
2022-11-02T04:47:50.038Z,100.00
2022-11-02T04:50:18.055Z,100.00
2022-11-02T04:52:45.932Z,100.00
2022-11-02T04:55:13.787Z,100.00
2022-11-02T04:57:46.410Z,100.00
2022-11-02T05:00:15.634Z,100.00
2022-11-02T05:02:43.800Z,100.00
2022-11-02T05:05:13.117Z,100.00
2022-11-02T05:07:41.134Z,100.00
2022-11-02T05:10:10.285Z,100.00
2022-11-02T05:12:38.246Z,100.00
2022-11-02T05:15:07.102Z,100.00
2022-11-02T05:17:34.941Z,100.00
2022-11-02T05:20:03.946Z,100.00
2022-11-02T05:22:33.294Z,100.00
2022-11-02T05:25:01.131Z,100.00
2022-11-02T05:27:28.949Z,100.00
2022-11-02T05:29:56.755Z,100.00
2022-11-02T05:32:24.624Z,100.00
2022-11-02T05:34:52.508Z,100.00
2022-11-02T05:37:20.351Z,100.00
2022-11-02T05:39:50.619Z,100.00
2022-11-02T05:42:18.722Z,100.00
2022-11-02T05:44:46.573Z,100.00
2022-11-02T05:47:14.405Z,100.00
2022-11-02T05:49:42.422Z,100.00
2022-11-02T05:52:10.302Z,100.00
2022-11-02T05:54:38.136Z,100.00
2022-11-02T05:57:07.640Z,100.00
2022-11-02T05:59:35.474Z,100.00
2022-11-02T06:02:03.423Z,98.96
2022-11-02T06:04:31.430Z,97.69
2022-11-02T06:06:59.252Z,97.85
2022-11-02T06:09:27.661Z,95.79
2022-11-02T06:11:57.270Z,93.89
2022-11-02T06:14:26.658Z,93.77
2022-11-02T06:16:54.483Z,93.36
2022-11-02T06:19:22.377Z,92.67
2022-11-02T06:21:50.231Z,89.52
2022-11-02T06:24:18.116Z,87.45
2022-11-02T06:26:46.858Z,87.71
2022-11-02T06:29:15.036Z,87.07
2022-11-02T06:31:44.267Z,84.85
2022-11-02T06:34:12.149Z,86.46
2022-11-02T06:36:39.977Z,86.01
2022-11-02T06:39:07.842Z,84.37
2022-11-02T06:41:35.697Z,83.79
2022-11-02T06:44:03.584Z,82.87
2022-11-02T06:46:31.374Z,82.25
2022-11-02T06:49:00.598Z,80.44
2022-11-02T06:51:28.444Z,80.52
2022-11-02T06:53:56.451Z,79.66
2022-11-02T06:56:24.260Z,78.55
2022-11-02T06:58:52.183Z,77.92
2022-11-02T07:01:20.125Z,77.61
2022-11-02T07:03:48.026Z,75.93
2022-11-02T07:06:17.243Z,74.64
2022-11-02T07:08:45.150Z,73.08
2022-11-02T07:11:17.182Z,71.96
2022-11-02T07:13:45.313Z,71.26
2022-11-02T07:16:13.349Z,70.65
2022-11-02T07:18:41.751Z,70.18
2022-11-02T07:21:11.482Z,69.26
2022-11-02T07:27:31.262Z,70.83
2022-11-02T07:29:59.350Z,70.85
2022-11-02T07:32:27.259Z,70.22
2022-11-02T07:34:55.113Z,70.66
2022-11-02T07:37:22.930Z,68.72
2022-11-02T07:39:50.773Z,68.39
2022-11-02T07:42:18.696Z,68.01
2022-11-02T07:44:47.945Z,67.70
2022-11-02T07:47:15.814Z,67.88
2022-11-02T07:49:43.731Z,67.26
2022-11-02T07:52:11.548Z,64.98
2022-11-02T07:54:44.336Z,66.40
2022-11-02T07:57:12.561Z,64.70
2022-11-02T07:59:40.385Z,64.74
2022-11-02T08:02:13.648Z,64.67
2022-11-02T08:04:44.081Z,64.57
2022-11-02T08:07:13.027Z,63.91
2022-11-02T08:09:40.922Z,63.09
2022-11-02T08:12:08.855Z,62.74
2022-11-02T08:14:36.681Z,61.79
2022-11-02T08:17:04.595Z,60.59
2022-11-02T08:19:33.907Z,59.10
2022-11-02T08:22:01.753Z,58.18
2022-11-02T08:24:29.619Z,57.91
2022-11-02T08:26:57.446Z,57.39
2022-11-02T08:29:25.278Z,55.95
2022-11-02T08:31:53.155Z,55.35
2022-11-02T08:34:20.974Z,54.43
2022-11-02T08:36:50.180Z,55.22
2022-11-02T08:39:19.247Z,54.03
2022-11-02T08:41:47.220Z,54.02
2022-11-02T08:44:15.070Z,53.22
2022-11-02T08:46:42.986Z,52.58
2022-11-02T08:49:10.898Z,51.92
2022-11-02T08:51:38.761Z,52.31
2022-11-02T08:54:07.997Z,51.07
2022-11-02T08:56:35.904Z,51.30
2022-11-02T08:59:03.795Z,51.85
2022-11-02T09:01:31.684Z,50.76
2022-11-02T09:03:59.575Z,51.09
2022-11-02T09:06:27.430Z,51.20
2022-11-02T09:08:57.941Z,50.72
2022-11-02T09:11:28.299Z,50.49
2022-11-02T09:13:57.267Z,49.90
2022-11-02T09:16:25.254Z,49.04
2022-11-02T09:18:53.094Z,49.33
2022-11-02T09:21:20.917Z,49.34
2022-11-02T09:23:49.299Z,49.33
2022-11-02T09:26:17.180Z,49.48
2022-11-02T09:28:46.406Z,49.38
2022-11-02T09:31:14.261Z,49.21
2022-11-02T09:33:42.140Z,48.66
2022-11-02T09:36:10.722Z,46.88
2022-11-02T09:38:38.623Z,46.46
2022-11-02T09:41:15.418Z,46.78
2022-11-02T09:43:54.235Z,46.22
2022-11-02T09:46:26.942Z,45.68
2022-11-02T09:48:59.114Z,46.18
2022-11-02T09:51:30.379Z,46.73
2022-11-02T09:54:11.646Z,45.86
2022-11-02T09:56:45.654Z,45.21
2022-11-02T09:59:17.214Z,44.82
2022-11-02T10:01:59.933Z,44.41
2022-11-02T10:04:55.163Z,43.89
2022-11-02T10:07:39.489Z,44.83
2022-11-02T10:10:15.187Z,43.62
2022-11-02T10:12:52.459Z,43.45
2022-11-02T10:15:26.301Z,43.48
2022-11-02T10:17:58.915Z,42.87
2022-11-02T10:20:28.606Z,42.42
2022-11-02T10:23:03.749Z,42.15
2022-11-02T10:25:31.925Z,41.92
2022-11-02T10:28:04.794Z,41.19
2022-11-02T10:30:34.416Z,41.11
2022-11-02T10:33:02.599Z,41.46
2022-11-02T10:35:57.759Z,40.83
2022-11-02T10:38:39.291Z,40.21
2022-11-02T10:41:21.803Z,40.00
2022-11-02T10:44:10.029Z,39.55
2022-11-02T10:46:54.989Z,39.58
2022-11-02T10:49:46.727Z,39.34
2022-11-02T10:52:16.825Z,39.68
2022-11-02T10:54:44.663Z,39.82
2022-11-02T10:57:13.912Z,38.65
2022-11-02T10:59:42.123Z,38.01
2022-11-02T11:02:14.607Z,38.74
2022-11-02T11:04:43.906Z,38.45
2022-11-02T11:07:18.047Z,38.25
2022-11-02T11:09:51.726Z,38.30
2022-11-02T11:12:23.650Z,37.67
2022-11-02T11:20:37.341Z,36.68
2022-11-02T11:23:20.150Z,36.09
2022-11-02T11:26:02.261Z,35.51
2022-11-02T11:28:33.450Z,35.66
2022-11-02T11:31:08.903Z,35.77
2022-11-02T11:33:46.437Z,35.07
2022-11-02T11:38:59.409Z,33.32
2022-11-02T11:41:27.999Z,34.07
2022-11-02T11:43:56.280Z,32.47
2022-11-02T11:46:24.313Z,31.39
2022-11-02T11:48:56.354Z,30.93
2022-11-02T11:51:32.109Z,30.03
2022-11-02T11:54:20.426Z,29.46
2022-11-02T11:56:49.324Z,27.96
2022-11-02T11:59:29.614Z,29.04
2022-11-02T12:01:59.694Z,28.36
2022-11-02T12:04:30.940Z,27.22
2022-11-02T12:07:23.691Z,27.46
2022-11-02T12:10:02.785Z,27.18
2022-11-02T12:12:47.102Z,27.78
2022-11-02T12:15:25.194Z,27.58
2022-11-02T12:18:06.214Z,27.63
2022-11-02T12:20:55.844Z,28.02
2022-11-02T12:23:40.323Z,27.71
2022-11-02T12:26:22.281Z,28.34
2022-11-02T12:29:02.413Z,27.72
2022-11-02T12:31:36.764Z,28.41
2022-11-02T12:34:28.504Z,28.37
2022-11-02T12:37:35.351Z,27.92
2022-11-02T12:40:16.574Z,28.73
2022-11-02T12:42:54.972Z,29.25
2022-11-02T12:45:29.129Z,28.92
2022-11-02T12:48:00.093Z,28.93
2022-11-02T12:50:38.641Z,29.17
2022-11-02T12:53:23.375Z,28.95
2022-11-02T12:55:55.234Z,29.24
2022-11-02T12:58:27.323Z,29.29
2022-11-02T13:01:12.341Z,28.79
2022-11-02T13:03:48.929Z,29.10
2022-11-02T13:06:21.471Z,28.90
2022-11-02T13:08:55.223Z,28.90
2022-11-02T13:11:28.487Z,28.65
2022-11-02T13:13:59.186Z,28.53
2022-11-02T13:16:36.927Z,28.62
2022-11-02T13:19:06.592Z,28.97
2022-11-02T13:21:43.696Z,29.14
2022-11-02T13:24:19.643Z,29.29
2022-11-02T13:26:57.279Z,29.50
2022-11-02T13:29:37.186Z,30.06
2022-11-02T13:32:11.137Z,29.68
2022-11-02T13:34:42.718Z,30.12
2022-11-02T13:37:15.911Z,30.31
2022-11-02T13:39:51.564Z,30.21
2022-11-02T13:42:38.186Z,30.46
2022-11-02T13:45:38.708Z,30.75
2022-11-02T13:48:33.419Z,30.86
2022-11-02T13:51:06.540Z,30.53
2022-11-02T13:53:38.702Z,30.88
2022-11-02T13:56:10.897Z,30.94
2022-11-02T13:58:50.734Z,30.85
2022-11-02T14:01:20.849Z,31.12
2022-11-02T14:03:56.155Z,31.63
2022-11-02T14:06:28.553Z,31.37
2022-11-02T14:08:59.514Z,31.46
2022-11-02T14:11:50.083Z,31.81
2022-11-02T14:14:23.617Z,31.90
2022-11-02T14:17:13.634Z,32.35
2022-11-02T14:19:56.934Z,32.51
2022-11-02T14:22:24.799Z,32.61
2022-11-02T14:25:05.930Z,32.80
2022-11-02T14:27:35.530Z,33.75
2022-11-02T14:30:03.475Z,33.29
2022-11-02T14:32:52.115Z,33.81
2022-11-02T14:35:39.405Z,33.83
2022-11-02T14:38:39.506Z,34.15
2022-11-02T14:41:23.975Z,34.33
2022-11-02T14:44:15.869Z,34.68
2022-11-02T14:46:56.668Z,35.29
2022-11-02T14:49:28.863Z,35.11
2022-11-02T14:52:04.593Z,35.29
2022-11-02T14:54:35.635Z,35.17
2022-11-02T14:57:07.341Z,36.09
2022-11-02T14:59:39.702Z,36.02
2022-11-02T15:02:13.786Z,35.95
2022-11-02T15:04:50.842Z,36.01
2022-11-02T15:07:23.685Z,36.07
2022-11-02T15:09:54.221Z,36.55
2022-11-02T15:12:28.720Z,36.89
2022-11-02T15:15:00.555Z,36.93
2022-11-02T15:17:54.488Z,37.37
2022-11-02T15:20:33.633Z,37.39
2022-11-02T15:23:29.491Z,37.66
2022-11-02T15:25:59.865Z,37.79
2022-11-02T15:28:30.725Z,38.02
2022-11-02T15:31:05.302Z,38.04
2022-11-02T15:33:37.958Z,38.46
2022-11-02T15:36:09.760Z,38.52
2022-11-02T15:38:40.331Z,38.75
2022-11-02T15:41:20.646Z,38.96
2022-11-02T15:44:00.544Z,39.09
2022-11-02T15:46:43.166Z,39.26
2022-11-02T15:49:26.087Z,39.58
2022-11-02T15:52:04.598Z,39.65
2022-11-02T15:54:50.802Z,39.48
2022-11-02T15:57:30.243Z,39.79
2022-11-02T16:00:13.267Z,39.92
2022-11-02T16:02:44.801Z,40.16
2022-11-02T16:05:23.512Z,40.25
2022-11-02T16:10:41.554Z,40.94
2022-11-02T16:13:17.070Z,41.30
2022-11-02T16:15:46.308Z,41.39
2022-11-02T16:18:26.698Z,41.71
2022-11-02T16:20:57.019Z,42.15
2022-11-02T16:23:28.038Z,42.09
2022-11-02T16:25:58.376Z,42.66
2022-11-02T16:28:28.411Z,42.90
2022-11-02T16:31:12.501Z,42.94
2022-11-02T16:33:47.594Z,43.29
2022-11-02T16:36:18.233Z,43.44
2022-11-02T16:38:54.077Z,43.71
2022-11-02T16:41:22.142Z,43.80
2022-11-02T16:43:51.885Z,44.19
2022-11-02T16:46:30.797Z,44.08
2022-11-02T16:49:13.378Z,44.66
2022-11-02T16:51:41.769Z,44.92
2022-11-02T16:54:30.649Z,45.25
2022-11-02T16:57:03.279Z,45.41
2022-11-02T16:59:36.068Z,45.18
2022-11-02T17:02:06.081Z,45.35
2022-11-02T17:04:42.464Z,45.76
2022-11-02T17:07:14.675Z,45.54
2022-11-02T17:09:43.099Z,46.10
2022-11-02T17:12:16.253Z,46.16
2022-11-02T17:14:46.656Z,46.06
2022-11-02T17:17:36.418Z,45.93
2022-11-02T17:20:18.139Z,46.44
2022-11-02T17:22:55.285Z,46.48
2022-11-02T17:25:25.524Z,46.38
2022-11-02T17:27:55.362Z,46.40
2022-11-02T17:30:49.191Z,46.80
2022-11-02T17:33:24.802Z,47.04
2022-11-02T17:35:55.905Z,47.06
2022-11-02T17:38:26.890Z,47.09
2022-11-02T17:40:55.501Z,46.92
2022-11-02T17:43:23.737Z,47.02
2022-11-02T17:45:58.164Z,47.03
2022-11-02T17:48:28.526Z,46.62
2022-11-02T17:50:59.871Z,46.76
2022-11-02T17:53:28.222Z,46.93
2022-11-02T17:55:56.216Z,46.71
2022-11-02T17:58:24.086Z,46.80
2022-11-02T18:00:54.094Z,47.25
2022-11-02T18:03:25.567Z,47.49
2022-11-02T18:06:00.207Z,47.50
2022-11-02T18:08:28.506Z,47.61
2022-11-02T18:10:56.386Z,47.63
2022-11-02T18:13:25.774Z,47.76
2022-11-02T18:15:53.629Z,47.65
2022-11-02T18:18:21.508Z,47.94
2022-11-02T18:20:49.583Z,48.13
2022-11-02T18:23:19.902Z,47.78
2022-11-02T18:25:47.935Z,47.80
2022-11-02T18:28:15.782Z,47.66
2022-11-02T18:30:45.093Z,47.94
2022-11-02T18:33:13.989Z,48.06
2022-11-02T18:35:42.242Z,47.93
2022-11-02T18:38:10.152Z,48.14
2022-11-02T18:40:39.389Z,48.14
2022-11-02T18:43:07.795Z,48.21
2022-11-02T18:45:35.915Z,48.22
2022-11-02T18:48:04.280Z,48.15
2022-11-02T18:50:32.550Z,48.13
2022-11-02T18:53:00.474Z,48.03
2022-11-02T18:55:28.347Z,48.09
2022-11-02T18:57:57.549Z,48.14
2022-11-02T19:00:25.397Z,48.22
2022-11-02T19:02:53.278Z,48.22
2022-11-02T19:05:38.382Z,48.42
2022-11-02T19:08:23.839Z,48.34
2022-11-02T19:10:52.330Z,48.25
2022-11-02T19:13:21.535Z,48.36
2022-11-02T19:15:49.487Z,48.42
2022-11-02T19:18:17.346Z,48.24
2022-11-02T19:20:45.274Z,49.07
2022-11-02T19:23:13.105Z,49.13
2022-11-02T19:25:40.951Z,49.16
2022-11-02T19:28:09.001Z,49.28
2022-11-02T19:30:39.771Z,49.38
2022-11-02T19:33:08.484Z,49.40
2022-11-02T19:35:36.457Z,49.65
2022-11-02T19:38:04.302Z,49.46
2022-11-02T19:40:32.142Z,49.63
2022-11-02T19:42:59.959Z,49.95
2022-11-02T19:45:27.978Z,49.99
2022-11-02T19:47:57.442Z,50.09
2022-11-02T19:50:25.416Z,50.04
2022-11-02T19:52:53.498Z,50.36
2022-11-02T19:55:25.154Z,50.33
2022-11-02T19:57:53.761Z,50.60
2022-11-02T20:00:21.805Z,50.51
2022-11-02T20:02:50.496Z,50.60
2022-11-02T20:05:19.798Z,50.58
2022-11-02T20:07:47.711Z,50.33
2022-11-02T20:10:15.742Z,50.50
2022-11-02T20:12:43.640Z,50.65
2022-11-02T20:15:12.227Z,50.26
2022-11-02T20:17:58.226Z,50.24
2022-11-02T20:20:29.258Z,49.77
2022-11-02T20:22:57.086Z,49.98
2022-11-02T20:25:25.718Z,50.16
2022-11-02T20:27:54.059Z,50.28
2022-11-02T20:30:22.407Z,50.26
2022-11-02T20:32:50.587Z,49.97
2022-11-02T20:35:22.826Z,50.04
2022-11-02T20:37:52.079Z,50.24
2022-11-02T20:40:19.986Z,50.00
2022-11-02T20:42:50.335Z,50.11
2022-11-02T20:45:18.934Z,50.19
2022-11-02T20:47:46.798Z,50.25
2022-11-02T20:50:17.535Z,50.22
2022-11-02T20:52:46.777Z,49.83
2022-11-02T20:55:16.404Z,49.76
2022-11-02T20:57:44.212Z,49.66
2022-11-02T21:00:14.190Z,49.77
2022-11-02T21:02:42.020Z,49.71
2022-11-02T21:05:10.566Z,49.50
2022-11-02T21:07:38.458Z,49.56
2022-11-02T21:10:07.551Z,49.66
2022-11-02T21:12:54.507Z,49.96
2022-11-02T21:15:22.351Z,50.42
2022-11-02T21:17:50.202Z,50.32
2022-11-02T21:20:34.984Z,50.36
2022-11-02T21:23:03.324Z,50.78
2022-11-02T21:25:31.949Z,50.46
2022-11-02T21:28:01.419Z,50.21
2022-11-02T21:30:30.942Z,49.80
2022-11-02T21:32:59.038Z,50.46
2022-11-02T21:35:27.003Z,50.90
2022-11-02T21:37:57.497Z,50.72
2022-11-02T21:40:25.622Z,50.61
2022-11-02T21:42:53.482Z,50.15
2022-11-02T21:45:25.994Z,50.03
2022-11-02T21:47:54.200Z,50.01
2022-11-02T21:50:22.040Z,50.24
2022-11-02T21:52:49.888Z,50.19
2022-11-02T21:55:18.264Z,50.90
2022-11-02T21:57:46.128Z,50.83
2022-11-02T22:00:15.014Z,49.96
2022-11-02T22:02:43.353Z,50.50
2022-11-02T22:05:31.233Z,50.17
2022-11-02T22:08:16.685Z,50.00
2022-11-02T22:10:44.634Z,50.00
2022-11-02T22:13:29.795Z,49.78
2022-11-02T22:15:57.670Z,49.44
2022-11-02T22:18:26.870Z,49.13
2022-11-02T22:20:55.342Z,49.02
2022-11-02T22:23:23.159Z,48.32
2022-11-02T22:25:58.315Z,48.19
2022-11-02T22:28:29.540Z,48.25
2022-11-02T22:30:57.593Z,47.91
2022-11-02T22:33:27.482Z,47.75
2022-11-02T22:35:55.321Z,47.28
2022-11-02T22:38:40.435Z,47.20
2022-11-02T22:41:08.291Z,46.98
2022-11-02T22:43:36.117Z,46.82
2022-11-02T22:46:05.693Z,47.09
2022-11-02T22:48:36.430Z,47.03
2022-11-02T22:51:06.077Z,47.45
2022-11-02T22:53:34.548Z,47.65
2022-11-02T22:56:03.809Z,47.87
2022-11-02T22:58:32.924Z,47.97
2022-11-02T23:01:01.019Z,47.95
2022-11-02T23:03:31.537Z,47.94
2022-11-02T23:06:01.004Z,48.25
2022-11-02T23:08:29.923Z,48.58
2022-11-02T23:11:17.348Z,48.95
2022-11-02T23:13:48.467Z,48.66
2022-11-02T23:16:22.909Z,48.93
2022-11-02T23:19:13.778Z,49.32
2022-11-02T23:21:45.227Z,49.51
2022-11-02T23:24:30.654Z,49.74
2022-11-02T23:26:59.034Z,49.82
2022-11-02T23:29:44.546Z,50.10
2022-11-02T23:32:29.541Z,50.30
2022-11-02T23:35:16.265Z,50.90
2022-11-02T23:37:47.047Z,50.79
2022-11-02T23:40:16.617Z,50.95
2022-11-02T23:42:44.449Z,51.30
2022-11-02T23:45:12.866Z,51.23
2022-11-02T23:47:57.460Z,51.65
2022-11-02T23:50:44.074Z,51.81
2022-11-02T23:53:32.740Z,51.66
2022-11-02T23:56:18.786Z,51.81
2022-11-02T23:58:46.941Z,52.06
